createdAt,value
2018-03-27T00:00:53.236Z,3.2
2018-03-27T00:01:53.791Z,3.2
2018-03-27T00:02:53.815Z,3.2
2018-03-27T00:03:53.758Z,3.2
2018-03-27T00:05:53.329Z,3.1
2018-03-27T00:06:53.769Z,3.1
2018-03-27T00:07:53.287Z,3.1
2018-03-27T00:08:53.717Z,3.1
2018-03-27T00:09:53.436Z,3.1
2018-03-27T00:11:53.494Z,3.1
2018-03-27T00:12:53.714Z,3.1
2018-03-27T00:13:53.680Z,3.1
2018-03-27T00:14:54.546Z,3.1
2018-03-27T00:15:53.333Z,3.0
2018-03-27T00:16:53.326Z,3.0
2018-03-27T00:17:53.331Z,3.0
2018-03-27T00:18:53.283Z,3.0
2018-03-27T00:19:53.320Z,3.0
2018-03-27T00:20:53.356Z,3.0
2018-03-27T00:21:53.704Z,3.0
2018-03-27T00:23:53.547Z,3.0
2018-03-27T00:24:53.422Z,3.0
2018-03-27T00:25:53.799Z,3.1
2018-03-27T00:26:53.309Z,3.1
2018-03-27T00:27:53.772Z,3.1
2018-03-27T00:28:53.718Z,3.1
2018-03-27T00:29:53.334Z,3.1
2018-03-27T00:30:53.341Z,3.1
2018-03-27T00:31:53.818Z,3.1
2018-03-27T00:33:53.700Z,3.1
2018-03-27T00:34:54.237Z,3.1
2018-03-27T00:35:53.723Z,3.1
2018-03-27T00:36:53.785Z,3.1
2018-03-27T00:37:53.760Z,3.1
2018-03-27T00:38:53.544Z,3.1
2018-03-27T00:39:53.573Z,3.1
2018-03-27T00:40:53.830Z,3.1
2018-03-27T00:41:53.839Z,3.1
2018-03-27T00:42:53.927Z,3.1
2018-03-27T00:43:53.799Z,3.1
2018-03-27T00:44:53.819Z,3.1
2018-03-27T00:45:53.797Z,3.1
2018-03-27T00:46:53.417Z,3.1
2018-03-27T00:47:54.111Z,3.1
2018-03-27T00:49:53.383Z,3.0
2018-03-27T00:50:53.172Z,3.0
2018-03-27T00:51:53.489Z,3.0
2018-03-27T00:52:53.718Z,3.0
2018-03-27T00:54:53.643Z,2.9
2018-03-27T00:55:53.291Z,2.9
2018-03-27T00:56:53.223Z,2.9
2018-03-27T00:58:53.301Z,2.9
2018-03-27T00:59:53.654Z,2.9
2018-03-27T01:00:53.297Z,2.9
2018-03-27T01:02:53.697Z,2.8
2018-03-27T01:03:53.328Z,2.8
2018-03-27T01:04:53.317Z,2.9
2018-03-27T01:05:53.649Z,2.9
2018-03-27T01:06:53.737Z,2.9
2018-03-27T01:07:53.807Z,2.9
2018-03-27T01:08:53.370Z,2.9
2018-03-27T01:10:53.620Z,2.9
2018-03-27T01:11:53.591Z,2.9
2018-03-27T01:12:53.936Z,2.9
2018-03-27T01:13:55.844Z,2.9
2018-03-27T01:14:53.752Z,2.8
2018-03-27T01:15:53.403Z,2.8
2018-03-27T01:16:53.792Z,2.7
2018-03-27T01:17:53.852Z,2.7
2018-03-27T01:18:53.931Z,2.7
2018-03-27T01:19:53.686Z,2.7
2018-03-27T01:20:53.419Z,2.7
2018-03-27T01:22:53.432Z,2.7
2018-03-27T01:23:53.898Z,2.7
2018-03-27T01:24:53.899Z,2.7
2018-03-27T01:26:53.485Z,2.7
2018-03-27T01:27:53.291Z,2.7
2018-03-27T01:28:53.592Z,2.7
2018-03-27T01:29:53.869Z,2.7
2018-03-27T01:32:53.716Z,2.6
2018-03-27T01:33:53.741Z,2.6
2018-03-27T01:34:53.763Z,2.6
2018-03-27T01:35:53.761Z,2.6
2018-03-27T01:36:53.530Z,2.6
2018-03-27T01:37:53.311Z,2.5
2018-03-27T01:38:53.822Z,2.5
2018-03-27T01:39:53.843Z,2.5
2018-03-27T01:40:53.811Z,2.6
2018-03-27T01:41:53.336Z,2.6
2018-03-27T01:42:53.334Z,2.6
2018-03-27T01:43:53.758Z,2.6
2018-03-27T01:44:53.819Z,2.5
2018-03-27T01:45:53.450Z,2.5
2018-03-27T01:47:53.740Z,2.6
2018-03-27T01:48:53.879Z,2.6
2018-03-27T01:49:53.507Z,2.6
2018-03-27T01:50:53.396Z,2.6
2018-03-27T01:51:53.579Z,2.6
2018-03-27T01:52:53.690Z,2.6
2018-03-27T01:53:53.450Z,2.6
2018-03-27T01:55:53.489Z,2.6
2018-03-27T01:56:53.905Z,2.6
2018-03-27T01:57:54.083Z,2.6
2018-03-27T01:58:53.903Z,2.6
2018-03-27T01:59:53.972Z,2.6
2018-03-27T02:01:53.881Z,2.6
2018-03-27T02:02:53.670Z,2.6
2018-03-27T02:03:53.980Z,2.6
2018-03-27T02:04:53.439Z,2.6
2018-03-27T02:05:53.449Z,2.4
2018-03-27T02:06:53.617Z,2.4
2018-03-27T02:07:53.732Z,2.4
2018-03-27T02:08:53.483Z,2.4
2018-03-27T02:09:53.850Z,2.4
2018-03-27T02:10:53.849Z,2.3
2018-03-27T02:11:54.023Z,2.3
2018-03-27T02:12:53.895Z,2.3
2018-03-27T02:14:53.544Z,2.3
2018-03-27T02:15:53.402Z,2.3
2018-03-27T02:16:53.944Z,2.3
2018-03-27T02:18:53.726Z,2.4
2018-03-27T02:19:57.855Z,2.4
2018-03-27T02:20:53.902Z,2.4
2018-03-27T02:21:53.740Z,2.5
2018-03-27T02:22:53.865Z,2.4
2018-03-27T02:23:53.687Z,2.4
2018-03-27T02:24:53.882Z,2.4
2018-03-27T02:25:53.558Z,2.4
2018-03-27T02:26:53.565Z,2.4
2018-03-27T02:27:54.019Z,2.4
2018-03-27T02:29:53.438Z,2.4
2018-03-27T02:30:53.916Z,2.3
2018-03-27T02:31:54.764Z,2.3
2018-03-27T02:32:53.944Z,2.3
2018-03-27T02:33:54.028Z,2.3
2018-03-27T02:35:53.539Z,2.3
2018-03-27T02:36:53.948Z,2.3
2018-03-27T02:37:53.630Z,2.3
2018-03-27T02:39:54.121Z,2.3
2018-03-27T02:40:53.752Z,2.2
2018-03-27T02:41:53.639Z,2.2
2018-03-27T02:42:54.035Z,2.2
2018-03-27T02:43:53.840Z,2.2
2018-03-27T02:44:53.791Z,2.2
2018-03-27T02:46:54.006Z,2.1
2018-03-27T02:47:54.114Z,2.1
2018-03-27T02:48:53.886Z,2.0
2018-03-27T02:49:54.023Z,2.0
2018-03-27T02:50:53.790Z,2.0
2018-03-27T02:51:53.877Z,2.0
2018-03-27T02:52:53.521Z,2.0
2018-03-27T02:53:53.830Z,2.0
2018-03-27T02:54:54.019Z,2.0
2018-03-27T02:55:53.633Z,2.0
2018-03-27T02:56:54.055Z,2.0
2018-03-27T02:58:53.939Z,1.9
2018-03-27T02:59:54.047Z,1.9
2018-03-27T03:00:53.817Z,1.9
2018-03-27T03:01:53.761Z,1.9
2018-03-27T03:02:54.052Z,1.9
2018-03-27T03:03:54.105Z,1.9
2018-03-27T03:04:53.991Z,1.9
2018-03-27T03:05:53.522Z,1.9
2018-03-27T03:06:54.058Z,1.8
2018-03-27T03:07:53.973Z,1.8
2018-03-27T03:09:54.094Z,1.5
2018-03-27T03:10:53.577Z,1.5
2018-03-27T03:11:54.019Z,1.4
2018-03-27T03:13:54.277Z,1.4
2018-03-27T03:14:54.031Z,1.4
2018-03-27T03:15:54.054Z,1.4
2018-03-27T03:16:53.983Z,1.2
2018-03-27T03:17:53.653Z,1.2
2018-03-27T03:18:53.965Z,1.1
2018-03-27T03:19:54.084Z,1.1
2018-03-27T03:20:53.909Z,1.1
2018-03-27T03:22:54.050Z,1.0
2018-03-27T03:23:54.100Z,0.9
2018-03-27T03:24:53.832Z,0.9
2018-03-27T03:25:53.682Z,0.9
2018-03-27T03:26:53.989Z,0.9
2018-03-27T03:27:53.748Z,0.9
2018-03-27T03:28:53.996Z,0.8
2018-03-27T03:30:53.936Z,0.8
2018-03-27T03:31:53.975Z,0.9
2018-03-27T03:32:54.120Z,0.9
2018-03-27T03:33:54.028Z,1.1
2018-03-27T03:34:53.562Z,1.1
2018-03-27T03:35:53.761Z,1.1
2018-03-27T03:36:53.999Z,1.2
2018-03-27T03:37:53.496Z,1.2
2018-03-27T03:38:53.742Z,1.2
2018-03-27T03:39:53.676Z,1.3
2018-03-27T03:40:53.795Z,1.3
2018-03-27T03:41:53.975Z,1.4
2018-03-27T03:42:54.066Z,1.4
2018-03-27T03:44:53.578Z,1.2
2018-03-27T03:45:53.888Z,1.2
2018-03-27T03:46:53.807Z,1.0
2018-03-27T03:47:54.078Z,1.0
2018-03-27T03:48:53.730Z,1.0
2018-03-27T03:49:53.813Z,0.7
2018-03-27T03:50:54.226Z,0.7
2018-03-27T03:51:53.765Z,0.7
2018-03-27T03:52:53.970Z,0.7
2018-03-27T03:53:53.558Z,0.7
2018-03-27T03:54:54.045Z,0.7
2018-03-27T03:55:54.046Z,0.7
2018-03-27T03:56:54.003Z,0.5
2018-03-27T03:57:54.037Z,0.5
2018-03-27T03:58:53.618Z,0.5
2018-03-27T03:59:54.033Z,0.5
2018-03-27T04:01:04.090Z,0.5
2018-03-27T04:02:54.060Z,0.6
2018-03-27T04:03:54.009Z,0.6
2018-03-27T04:04:53.977Z,0.5
2018-03-27T04:05:53.795Z,0.5
2018-03-27T04:06:53.967Z,0.5
2018-03-27T04:09:53.701Z,0.7
2018-03-27T04:10:53.873Z,0.7
2018-03-27T04:11:53.873Z,0.7
2018-03-27T04:12:53.782Z,0.9
2018-03-27T04:13:54.142Z,0.9
2018-03-27T04:14:53.786Z,0.7
2018-03-27T04:15:53.670Z,0.7
2018-03-27T04:16:54.087Z,0.7
2018-03-27T04:17:53.739Z,0.5
2018-03-27T04:19:53.707Z,0.4
2018-03-27T04:20:53.805Z,0.4
2018-03-27T04:21:53.695Z,0.4
2018-03-27T04:23:53.849Z,0.5
2018-03-27T04:25:53.974Z,0.3
2018-03-27T04:27:54.173Z,0.1
2018-03-27T04:28:53.699Z,0.1
2018-03-27T04:29:53.715Z,0.1
2018-03-27T04:30:54.127Z,0.1
2018-03-27T04:31:53.852Z,0.1
2018-03-27T04:34:54.182Z,0.1
2018-03-27T04:35:53.905Z,0.1
2018-03-27T04:36:54.097Z,0.1
2018-03-27T04:37:54.076Z,0.1
2018-03-27T04:38:53.691Z,0.1
2018-03-27T04:39:53.896Z,0.1
2018-03-27T04:40:54.228Z,-0.2
2018-03-27T04:41:53.970Z,-0.2
2018-03-27T04:42:53.871Z,-0.2
2018-03-27T04:43:54.142Z,-0.2
2018-03-27T04:44:53.806Z,-0.2
2018-03-27T04:45:54.301Z,-0.2
2018-03-27T04:46:54.170Z,-0.2
2018-03-27T04:47:53.938Z,0.0
2018-03-27T04:48:53.750Z,0.0
2018-03-27T04:49:54.260Z,0.0
2018-03-27T04:50:54.342Z,0.1
2018-03-27T04:52:53.768Z,0.1
2018-03-27T04:54:53.885Z,0.1
2018-03-27T04:56:54.225Z,0.1
2018-03-27T04:57:53.996Z,0.0
2018-03-27T04:58:53.942Z,0.0
2018-03-27T04:59:54.250Z,0.0
2018-03-27T05:00:54.286Z,-0.2
2018-03-27T05:02:54.217Z,-0.2
2018-03-27T05:04:54.217Z,-0.2
2018-03-27T05:05:53.694Z,-0.3
2018-03-27T05:06:53.767Z,-0.3
2018-03-27T05:07:53.818Z,-0.3
2018-03-27T05:08:54.013Z,-0.4
2018-03-27T05:09:54.277Z,-0.4
2018-03-27T05:10:54.306Z,-0.5
2018-03-27T05:11:54.236Z,-0.5
2018-03-27T05:12:54.243Z,-0.5
2018-03-27T05:13:54.121Z,-0.6
2018-03-27T05:14:54.130Z,-0.6
2018-03-27T05:15:53.912Z,-0.6
2018-03-27T05:16:54.147Z,-0.6
2018-03-27T05:17:53.685Z,-0.6
2018-03-27T05:18:54.117Z,-0.8
2018-03-27T05:19:54.112Z,-0.8
2018-03-27T05:20:54.152Z,-0.8
2018-03-27T05:21:54.177Z,-0.8
2018-03-27T05:22:53.877Z,-0.8
2018-03-27T05:23:53.701Z,-0.8
2018-03-27T05:24:54.557Z,-0.8
2018-03-27T05:25:54.157Z,-0.6
2018-03-27T05:26:53.712Z,-0.6
2018-03-27T05:27:53.900Z,-0.6
2018-03-27T05:28:54.097Z,-0.6
2018-03-27T05:29:54.126Z,-0.6
2018-03-27T05:31:54.193Z,-0.6
2018-03-27T05:32:53.959Z,-0.6
2018-03-27T05:33:53.966Z,-0.5
2018-03-27T05:34:53.806Z,-0.5
2018-03-27T05:35:54.144Z,-0.4
2018-03-27T05:36:54.202Z,-0.4
2018-03-27T05:37:53.757Z,-0.4
2018-03-27T05:38:54.295Z,-0.4
2018-03-27T05:39:54.230Z,-0.4
2018-03-27T05:40:54.067Z,-0.4
2018-03-27T05:43:53.929Z,-0.2
2018-03-27T05:44:53.935Z,-0.2
2018-03-27T05:45:54.071Z,-0.2
2018-03-27T05:46:53.969Z,0.1
2018-03-27T05:47:54.310Z,0.1
2018-03-27T05:48:54.394Z,0.1
2018-03-27T05:49:54.858Z,0.1
2018-03-27T05:50:54.265Z,0.1
2018-03-27T05:51:54.362Z,0.1
2018-03-27T05:52:54.122Z,0.1
2018-03-27T05:53:54.064Z,0.0
2018-03-27T05:54:54.000Z,0.0
2018-03-27T05:55:54.438Z,0.0
2018-03-27T05:56:53.972Z,0.0
2018-03-27T05:57:53.940Z,0.0
2018-03-27T05:58:54.358Z,-0.3
2018-03-27T05:59:53.959Z,-0.3
2018-03-27T06:00:54.685Z,-0.3
2018-03-27T06:02:54.797Z,-0.4
2018-03-27T06:03:54.705Z,-0.4
2018-03-27T06:05:10.485Z,-0.4
2018-03-27T06:06:17.680Z,-0.4
2018-03-27T06:07:17.212Z,-0.4
2018-03-27T06:07:54.661Z,-0.4
2018-03-27T06:08:54.443Z,-0.4
2018-03-27T06:09:54.169Z,-0.3
2018-03-27T06:10:54.436Z,-0.3
2018-03-27T06:11:54.350Z,-0.2
2018-03-27T06:12:54.508Z,-0.2
2018-03-27T06:13:55.070Z,-0.2
2018-03-27T06:14:54.019Z,-0.2
2018-03-27T06:15:54.537Z,-0.2
2018-03-27T06:16:53.986Z,-0.2
2018-03-27T06:17:54.518Z,-0.2
2018-03-27T06:18:54.497Z,-0.2
2018-03-27T06:19:54.039Z,-0.2
2018-03-27T06:20:54.533Z,-0.2
2018-03-27T06:21:54.462Z,0.0
2018-03-27T06:22:54.450Z,0.0
2018-03-27T06:23:54.085Z,0.0
2018-03-27T06:24:54.567Z,0.2
2018-03-27T06:26:10.460Z,0.2
2018-03-27T06:26:54.049Z,0.2
2018-03-27T06:27:54.118Z,0.2
2018-03-27T06:28:54.755Z,0.2
2018-03-27T06:29:54.603Z,0.3
2018-03-27T06:30:54.457Z,0.3
2018-03-27T06:32:54.278Z,0.3
2018-03-27T06:33:54.601Z,0.3
2018-03-27T06:34:54.350Z,0.5
2018-03-27T06:35:54.443Z,0.5
2018-03-27T06:36:54.592Z,0.5
2018-03-27T06:37:54.048Z,0.5
2018-03-27T06:38:54.499Z,0.5
2018-03-27T06:39:54.543Z,0.7
2018-03-27T06:40:54.536Z,0.7
2018-03-27T06:41:54.429Z,0.7
2018-03-27T06:42:54.315Z,0.6
2018-03-27T06:44:54.263Z,0.7
2018-03-27T06:45:54.239Z,0.7
2018-03-27T06:46:54.605Z,0.7
2018-03-27T06:47:54.501Z,0.8
2018-03-27T06:48:54.517Z,0.8
2018-03-27T06:49:54.267Z,1.0
2018-03-27T06:51:54.100Z,1.0
2018-03-27T06:53:54.410Z,1.1
2018-03-27T06:54:54.548Z,1.3
2018-03-27T06:55:54.104Z,1.3
2018-03-27T06:56:54.486Z,1.3
2018-03-27T06:57:54.474Z,1.3
2018-03-27T06:58:54.430Z,1.3
2018-03-27T06:59:54.120Z,1.3
2018-03-27T07:00:55.169Z,1.3
2018-03-27T07:01:55.772Z,1.3
2018-03-27T07:02:54.186Z,1.4
2018-03-27T07:04:54.250Z,1.5
2018-03-27T07:05:54.570Z,1.5
2018-03-27T07:06:54.574Z,1.5
2018-03-27T07:08:54.440Z,1.5
2018-03-27T07:09:54.542Z,1.5
2018-03-27T07:11:54.233Z,1.6
2018-03-27T07:12:54.606Z,1.5
2018-03-27T07:13:54.579Z,1.5
2018-03-27T07:14:54.556Z,1.5
2018-03-27T07:15:54.468Z,1.5
2018-03-27T07:17:54.148Z,1.5
2018-03-27T07:18:54.090Z,1.5
2018-03-27T07:19:54.551Z,1.5
2018-03-27T07:20:54.527Z,1.7
2018-03-27T07:21:54.359Z,1.7
2018-03-27T07:22:54.483Z,1.9
2018-03-27T07:23:54.396Z,1.9
2018-03-27T07:25:54.123Z,2.1
2018-03-27T07:26:54.543Z,2.1
2018-03-27T07:27:54.297Z,2.3
2018-03-27T07:28:54.116Z,2.3
2018-03-27T07:29:54.592Z,2.3
2018-03-27T07:30:54.661Z,2.6
2018-03-27T07:31:54.321Z,2.6
2018-03-27T07:32:54.534Z,2.8
2018-03-27T07:34:54.087Z,2.8
2018-03-27T07:35:54.148Z,3.1
2018-03-27T07:36:54.160Z,3.1
2018-03-27T07:37:54.569Z,3.0
2018-03-27T07:38:54.585Z,3.0
2018-03-27T07:39:54.457Z,3.0
2018-03-27T07:40:54.213Z,3.1
2018-03-27T07:41:55.096Z,3.1
2018-03-27T07:42:54.397Z,3.1
2018-03-27T07:43:54.078Z,3.4
2018-03-27T07:44:54.538Z,3.4
2018-03-27T07:45:55.738Z,3.5
2018-03-27T07:46:54.514Z,3.5
2018-03-27T07:47:54.117Z,3.5
2018-03-27T07:48:54.408Z,3.5
2018-03-27T07:50:54.124Z,3.4
2018-03-27T07:51:54.339Z,3.4
2018-03-27T07:52:54.285Z,3.4
2018-03-27T07:53:54.329Z,3.5
2018-03-27T07:54:54.939Z,3.5
2018-03-27T07:55:54.569Z,3.3
2018-03-27T07:56:54.095Z,3.3
2018-03-27T07:57:55.317Z,3.3
2018-03-27T07:58:54.539Z,3.3
2018-03-27T07:59:55.074Z,3.3
2018-03-27T08:00:54.605Z,3.5
2018-03-27T08:01:54.295Z,3.5
2018-03-27T08:02:54.432Z,3.5
2018-03-27T08:03:54.191Z,3.8
2018-03-27T08:04:55.656Z,3.8
2018-03-27T08:05:54.691Z,3.9
2018-03-27T08:06:55.073Z,3.9
2018-03-27T08:08:54.378Z,4.0
2018-03-27T08:09:55.273Z,4.0
2018-03-27T08:10:54.606Z,4.0
2018-03-27T08:11:54.602Z,4.3
2018-03-27T08:12:54.345Z,4.3
2018-03-27T08:13:54.279Z,4.9
2018-03-27T08:14:56.077Z,4.9
2018-03-27T08:15:56.346Z,4.9
2018-03-27T08:17:54.371Z,5.2
2018-03-27T08:18:54.615Z,5.6
2018-03-27T08:19:54.365Z,5.6
2018-03-27T08:20:56.576Z,5.6
2018-03-27T08:21:55.108Z,5.7
2018-03-27T08:22:55.009Z,5.7
2018-03-27T08:23:55.601Z,5.2
2018-03-27T08:24:55.976Z,5.2
2018-03-27T08:25:55.205Z,5.2
2018-03-27T08:26:54.597Z,5.4
2018-03-27T08:27:54.823Z,5.4
2018-03-27T08:28:54.411Z,5.8
2018-03-27T08:30:54.680Z,5.8
2018-03-27T08:31:54.638Z,5.6
2018-03-27T08:32:54.407Z,5.6
2018-03-27T08:33:54.679Z,5.9
2018-03-27T08:34:54.410Z,5.9
2018-03-27T08:35:54.170Z,5.9
2018-03-27T08:36:54.526Z,6.3
2018-03-27T08:37:54.430Z,6.3
2018-03-27T08:38:54.197Z,6.3
2018-03-27T08:39:54.319Z,6.3
2018-03-27T08:40:54.677Z,6.3
2018-03-27T08:42:54.405Z,6.8
2018-03-27T08:43:54.770Z,6.8
2018-03-27T08:44:55.966Z,6.0
2018-03-27T08:45:57.533Z,6.0
2018-03-27T08:47:56.801Z,6.0
2018-03-27T08:49:54.662Z,5.9
2018-03-27T08:50:54.673Z,5.9
2018-03-27T08:52:54.269Z,6.0
2018-03-27T08:53:54.322Z,6.0
2018-03-27T08:54:54.450Z,6.2
2018-03-27T08:56:54.606Z,6.6
2018-03-27T08:58:54.864Z,6.6
2018-03-27T08:59:54.853Z,7.0
2018-03-27T09:00:54.562Z,7.0
2018-03-27T09:01:54.999Z,7.2
2018-03-27T09:02:54.826Z,7.2
2018-03-27T09:03:54.811Z,7.2
2018-03-27T09:04:54.769Z,7.7
2018-03-27T09:05:54.801Z,7.7
2018-03-27T09:06:54.854Z,7.8
2018-03-27T09:09:54.823Z,7.9
2018-03-27T09:10:54.926Z,7.9
2018-03-27T09:11:54.266Z,7.9
2018-03-27T09:12:54.427Z,7.6
2018-03-27T09:13:54.755Z,7.6
2018-03-27T09:15:54.680Z,7.6
2018-03-27T09:16:54.624Z,7.2
2018-03-27T09:18:54.458Z,7.3
2018-03-27T09:19:54.436Z,7.3
2018-03-27T09:20:54.961Z,7.3
2018-03-27T09:21:54.793Z,7.3
2018-03-27T09:22:54.674Z,6.3
2018-03-27T09:23:54.576Z,6.3
2018-03-27T09:24:54.833Z,6.5
2018-03-27T09:25:54.708Z,6.5
2018-03-27T09:26:54.790Z,6.5
2018-03-27T09:27:54.235Z,6.5
2018-03-27T09:28:54.183Z,6.5
2018-03-27T09:29:54.620Z,6.1
2018-03-27T09:30:54.413Z,6.1
2018-03-27T09:31:54.446Z,6.1
2018-03-27T09:32:54.432Z,6.1
2018-03-27T09:33:54.610Z,6.1
2018-03-27T09:34:54.275Z,6.1
2018-03-27T09:35:54.694Z,6.1
2018-03-27T09:36:54.246Z,6.2
2018-03-27T09:37:54.421Z,6.2
2018-03-27T09:38:54.422Z,6.2
2018-03-27T09:42:54.717Z,6.3
2018-03-27T09:43:54.451Z,6.3
2018-03-27T09:44:54.706Z,6.3
2018-03-27T09:45:54.268Z,6.3
2018-03-27T09:46:54.445Z,6.3
2018-03-27T09:47:54.270Z,6.4
2018-03-27T09:49:54.738Z,6.4
2018-03-27T09:50:54.485Z,6.5
2018-03-27T09:51:54.693Z,6.5
2018-03-27T09:53:54.450Z,6.6
2018-03-27T09:55:54.730Z,6.6
2018-03-27T09:56:54.785Z,6.6
2018-03-27T09:57:54.533Z,6.6
2018-03-27T09:58:54.254Z,6.6
2018-03-27T09:59:54.497Z,6.6
2018-03-27T10:00:54.771Z,6.6
2018-03-27T10:01:54.477Z,6.6
2018-03-27T10:02:54.570Z,6.6
2018-03-27T10:03:54.835Z,6.6
2018-03-27T10:04:54.815Z,6.6
2018-03-27T10:05:54.722Z,6.8
2018-03-27T10:06:54.699Z,6.8
2018-03-27T10:07:54.492Z,7.0
2018-03-27T10:08:54.813Z,7.0
2018-03-27T10:09:54.413Z,7.0
2018-03-27T10:10:54.325Z,7.2
2018-03-27T10:11:54.492Z,7.2
2018-03-27T10:12:54.416Z,7.2
2018-03-27T10:13:54.821Z,7.6
2018-03-27T10:14:54.508Z,7.6
2018-03-27T10:15:54.496Z,7.7
2018-03-27T10:16:54.464Z,7.7
2018-03-27T10:17:54.735Z,7.7
2018-03-27T10:18:54.299Z,8.0
2018-03-27T10:20:54.395Z,8.0
2018-03-27T10:21:54.737Z,8.0
2018-03-27T10:22:54.706Z,8.0
2018-03-27T10:23:54.497Z,7.9
2018-03-27T10:25:54.471Z,7.7
2018-03-27T10:26:54.326Z,7.7
2018-03-27T10:28:54.362Z,8.1
2018-03-27T10:29:54.806Z,8.1
2018-03-27T10:30:54.927Z,8.4
2018-03-27T10:31:54.607Z,8.4
2018-03-27T10:32:54.430Z,8.4
2018-03-27T10:33:54.437Z,8.3
2018-03-27T10:34:54.403Z,8.3
2018-03-27T10:35:54.396Z,8.1
2018-03-27T10:36:54.623Z,8.1
2018-03-27T10:37:56.307Z,8.1
2018-03-27T10:38:54.341Z,8.3
2018-03-27T10:39:54.475Z,8.3
2018-03-27T10:40:54.349Z,8.3
2018-03-27T10:42:54.787Z,8.3
2018-03-27T10:43:54.708Z,8.5
2018-03-27T10:44:54.305Z,8.5
2018-03-27T10:45:54.735Z,8.5
2018-03-27T10:46:54.831Z,8.6
2018-03-27T10:49:47.121Z,8.7
2018-03-27T10:49:57.420Z,8.7
2018-03-27T10:50:56.978Z,8.7
2018-03-27T10:51:57.454Z,8.4
2018-03-27T10:52:56.964Z,8.4
2018-03-27T10:53:57.465Z,8.6
2018-03-27T10:54:57.180Z,8.6
2018-03-27T10:55:57.362Z,8.6
2018-03-27T10:56:57.044Z,8.9
2018-03-27T10:57:57.463Z,8.9
2018-03-27T10:58:56.972Z,9.0
2018-03-27T10:59:57.202Z,9.0
2018-03-27T11:00:57.710Z,9.0
2018-03-27T11:01:57.411Z,9.7
2018-03-27T11:02:57.684Z,9.7
2018-03-27T11:03:59.946Z,8.6
2018-03-27T11:04:57.870Z,8.6
2018-03-27T11:06:57.851Z,8.3
2018-03-27T11:07:57.671Z,8.3
2018-03-27T11:08:57.886Z,8.7
2018-03-27T11:09:58.830Z,8.7
2018-03-27T11:10:57.676Z,8.7
2018-03-27T11:11:57.720Z,8.8
2018-03-27T11:12:57.637Z,8.8
2018-03-27T11:13:59.746Z,9.4
2018-03-27T11:14:57.968Z,9.4
2018-03-27T11:15:57.565Z,9.4
2018-03-27T11:16:58.007Z,9.9
2018-03-27T11:18:59.043Z,9.9
2018-03-27T11:19:57.777Z,9.5
2018-03-27T11:20:57.851Z,9.5
2018-03-27T11:21:57.940Z,9.5
2018-03-27T11:22:57.521Z,9.5
2018-03-27T11:23:57.723Z,9.5
2018-03-27T11:24:57.464Z,8.8
2018-03-27T11:25:57.546Z,8.8
2018-03-27T11:26:57.857Z,9.0
2018-03-27T11:27:57.605Z,9.0
2018-03-27T11:28:57.674Z,9.0
2018-03-27T11:29:57.350Z,9.0
2018-03-27T11:30:57.756Z,9.0
2018-03-27T11:31:57.871Z,9.1
2018-03-27T11:32:57.354Z,9.1
2018-03-27T11:33:57.479Z,9.1
2018-03-27T11:35:58.949Z,9.6
2018-03-27T11:36:57.670Z,9.3
2018-03-27T11:37:58.232Z,9.3
2018-03-27T11:38:59.453Z,9.3
2018-03-27T11:39:57.737Z,9.8
2018-03-27T11:40:57.647Z,9.8
2018-03-27T11:41:57.703Z,10.1
2018-03-27T11:43:57.917Z,10.1
2018-03-27T11:44:57.646Z,10.0
2018-03-27T11:45:57.381Z,10.0
2018-03-27T11:47:57.338Z,10.0
2018-03-27T11:48:57.830Z,10.0
2018-03-27T11:49:57.616Z,10.0
2018-03-27T11:50:57.478Z,10.0
2018-03-27T11:51:58.541Z,10.0
2018-03-27T11:52:57.774Z,9.4
2018-03-27T11:53:57.418Z,9.4
2018-03-27T11:54:57.771Z,9.2
2018-03-27T11:55:57.377Z,9.2
2018-03-27T11:56:57.489Z,9.2
2018-03-27T11:57:57.406Z,9.3
2018-03-27T11:58:57.709Z,9.3
2018-03-27T11:59:57.301Z,9.0
2018-03-27T12:01:58.898Z,9.0
2018-03-27T12:02:57.548Z,9.0
2018-03-27T12:03:58.459Z,9.0
2018-03-27T12:04:58.770Z,8.8
2018-03-27T12:06:58.500Z,8.8
2018-03-27T12:07:58.491Z,8.7
2018-03-27T12:09:57.969Z,8.6
2018-03-27T12:10:58.173Z,8.6
2018-03-27T12:11:57.917Z,8.6
2018-03-27T12:13:57.646Z,9.0
2018-03-27T12:14:57.714Z,8.9
2018-03-27T12:15:57.892Z,8.9
2018-03-27T12:16:59.022Z,8.9
2018-03-27T12:17:58.044Z,8.8
2018-03-27T12:20:57.977Z,8.9
2018-03-27T12:22:58.008Z,9.4
2018-03-27T12:24:00.247Z,9.4
2018-03-27T12:27:57.727Z,10.0
2018-03-27T12:28:57.679Z,10.0
2018-03-27T12:29:57.687Z,10.0
2018-03-27T12:30:57.281Z,9.6
2018-03-27T12:31:57.477Z,9.6
2018-03-27T12:32:57.515Z,9.5
2018-03-27T12:33:57.720Z,9.5
2018-03-27T12:34:57.830Z,9.5
2018-03-27T12:35:57.314Z,9.3
2018-03-27T12:37:57.329Z,9.6
2018-03-27T12:38:57.703Z,9.6
2018-03-27T12:39:57.405Z,9.6
2018-03-27T12:40:57.788Z,9.7
2018-03-27T12:41:57.885Z,9.7
2018-03-27T12:42:57.817Z,9.7
2018-03-27T12:43:58.942Z,9.7
2018-03-27T12:44:57.647Z,9.7
2018-03-27T12:45:57.627Z,10.5
2018-03-27T12:46:57.899Z,10.5
2018-03-27T12:47:57.438Z,10.5
2018-03-27T12:48:57.803Z,10.2
2018-03-27T12:49:57.411Z,10.2
2018-03-27T12:52:57.985Z,10.0
2018-03-27T12:53:57.989Z,9.9
2018-03-27T12:54:57.585Z,9.9
2018-03-27T12:55:58.011Z,9.3
2018-03-27T12:57:57.465Z,9.3
2018-03-27T12:58:57.581Z,9.6
2018-03-27T12:59:57.646Z,9.6
2018-03-27T13:00:57.904Z,9.8
2018-03-27T13:01:57.976Z,9.8
2018-03-27T13:02:58.011Z,9.8
2018-03-27T13:04:58.270Z,10.5
2018-03-27T13:05:57.627Z,9.8
2018-03-27T13:06:57.901Z,9.8
2018-03-27T13:08:57.657Z,10.1
2018-03-27T13:09:57.637Z,10.1
2018-03-27T13:10:57.811Z,9.9
2018-03-27T13:11:57.401Z,9.9
2018-03-27T13:13:57.375Z,10.0
2018-03-27T13:14:57.756Z,10.0
2018-03-27T13:15:57.854Z,9.5
2018-03-27T13:16:57.583Z,9.5
2018-03-27T13:17:57.883Z,9.5
2018-03-27T13:18:57.702Z,9.3
2018-03-27T13:19:57.450Z,9.3
2018-03-27T13:21:57.956Z,9.3
2018-03-27T13:22:57.565Z,9.3
2018-03-27T13:23:57.833Z,9.3
2018-03-27T13:24:58.701Z,9.3
2018-03-27T13:25:58.006Z,9.3
2018-03-27T13:26:57.922Z,9.3
2018-03-27T13:27:58.368Z,9.3
2018-03-27T13:30:57.918Z,9.3
2018-03-27T13:31:58.572Z,9.4
2018-03-27T13:32:57.449Z,9.4
2018-03-27T13:34:58.455Z,9.2
2018-03-27T13:36:57.837Z,9.2
2018-03-27T13:38:58.110Z,9.2
2018-03-27T13:40:57.861Z,9.2
2018-03-27T13:41:57.849Z,9.3
2018-03-27T13:42:58.170Z,9.3
2018-03-27T13:44:57.976Z,9.5
2018-03-27T13:45:57.908Z,9.5
2018-03-27T13:46:59.763Z,9.4
2018-03-27T13:47:57.764Z,9.4
2018-03-27T13:48:58.178Z,9.4
2018-03-27T13:49:57.715Z,9.3
2018-03-27T13:50:58.334Z,9.3
2018-03-27T13:51:58.167Z,9.3
2018-03-27T13:52:57.854Z,9.3
2018-03-27T13:53:58.266Z,9.3
2018-03-27T13:54:58.204Z,9.6
2018-03-27T13:55:57.702Z,9.6
2018-03-27T13:57:57.558Z,10.0
2018-03-27T13:58:57.519Z,10.0
2018-03-27T13:59:57.460Z,10.4
2018-03-27T14:00:57.989Z,10.4
2018-03-27T14:01:58.209Z,10.5
2018-03-27T14:02:58.517Z,10.5
2018-03-27T14:04:57.843Z,10.5
2018-03-27T14:05:57.856Z,10.5
2018-03-27T14:06:57.591Z,10.2
2018-03-27T14:07:57.350Z,10.2
2018-03-27T14:08:58.182Z,10.2
2018-03-27T14:09:57.960Z,10.5
2018-03-27T14:10:57.528Z,10.5
2018-03-27T14:11:58.864Z,10.8
2018-03-27T14:12:59.005Z,10.8
2018-03-27T14:13:57.706Z,10.8
2018-03-27T14:14:57.996Z,10.8
2018-03-27T14:15:57.774Z,10.8
2018-03-27T14:16:59.117Z,10.7
2018-03-27T14:17:57.934Z,10.7
2018-03-27T14:18:58.221Z,10.7
2018-03-27T14:19:57.841Z,11.1
2018-03-27T14:20:58.806Z,11.1
2018-03-27T14:21:58.213Z,11.1
2018-03-27T14:22:58.046Z,10.7
2018-03-27T14:23:58.075Z,10.7
2018-03-27T14:24:57.957Z,10.0
2018-03-27T14:25:57.968Z,10.0
2018-03-27T14:26:58.118Z,10.0
2018-03-27T14:27:57.546Z,9.7
2018-03-27T14:28:57.843Z,9.7
2018-03-27T14:29:57.543Z,9.5
2018-03-27T14:30:57.713Z,9.5
2018-03-27T14:32:58.062Z,9.6
2018-03-27T14:34:57.830Z,9.9
2018-03-27T14:35:58.017Z,9.9
2018-03-27T14:37:58.008Z,10.0
2018-03-27T14:38:58.282Z,10.0
2018-03-27T14:39:58.105Z,10.1
2018-03-27T14:40:58.175Z,10.1
2018-03-27T14:41:57.517Z,10.1
2018-03-27T14:42:57.793Z,10.6
2018-03-27T14:43:57.785Z,10.6
2018-03-27T14:44:57.971Z,10.6
2018-03-27T14:47:57.582Z,9.7
2018-03-27T14:48:58.566Z,9.7
2018-03-27T14:51:09.190Z,9.9
2018-03-27T14:52:09.174Z,9.9
2018-03-27T14:53:09.191Z,9.9
2018-03-27T14:54:08.873Z,9.9
2018-03-27T14:56:09.084Z,9.7
2018-03-27T14:57:09.352Z,9.7
2018-03-27T14:58:09.253Z,9.5
2018-03-27T14:59:09.515Z,9.5
2018-03-27T15:00:09.202Z,9.5
2018-03-27T15:01:08.958Z,9.8
2018-03-27T15:02:09.064Z,9.8
2018-03-27T15:03:08.878Z,9.5
2018-03-27T15:04:10.159Z,9.5
2018-03-27T15:09:09.224Z,9.4
2018-03-27T15:10:09.354Z,9.4
2018-03-27T15:11:08.751Z,9.4
2018-03-27T15:12:08.982Z,9.4
2018-03-27T15:14:08.809Z,9.3
2018-03-27T15:15:08.744Z,9.3
2018-03-27T15:16:09.254Z,9.3
2018-03-27T15:17:08.704Z,9.3
2018-03-27T15:18:08.747Z,9.4
2018-03-27T15:19:08.841Z,9.4
2018-03-27T15:21:08.789Z,9.5
2018-03-27T15:22:08.798Z,9.5
2018-03-27T15:23:08.826Z,9.7
2018-03-27T15:24:09.023Z,9.7
2018-03-27T15:25:08.989Z,9.7
2018-03-27T15:26:09.106Z,9.7
2018-03-27T15:27:08.759Z,9.7
2018-03-27T15:28:09.299Z,9.7
2018-03-27T15:29:08.785Z,9.7
2018-03-27T15:31:08.928Z,9.5
2018-03-27T15:32:08.821Z,9.5
2018-03-27T15:33:08.840Z,9.5
2018-03-27T15:34:08.994Z,9.3
2018-03-27T15:37:09.063Z,9.4
2018-03-27T15:39:09.252Z,9.3
2018-03-27T15:40:09.397Z,9.3
2018-03-27T15:41:09.245Z,9.3
2018-03-27T15:45:08.955Z,9.4
2018-03-27T15:47:08.936Z,9.5
2018-03-27T15:48:08.809Z,9.5
2018-03-27T15:49:09.217Z,9.6
2018-03-27T15:50:09.241Z,9.6
2018-03-27T15:51:08.899Z,9.7
2018-03-27T15:52:08.734Z,9.7
2018-03-27T15:53:09.330Z,9.7
2018-03-27T15:54:08.978Z,9.7
2018-03-27T15:56:08.969Z,9.8
2018-03-27T15:57:09.224Z,9.8